Alba, Michigan
Current Conditions -  °F | °C
As of 10:15 AM on Thursday 18 Dec 2014 (Local Time) from KACB Reporting Station
Overcast Overcast  
Wind Chill: 26°   Ceiling: 1100
Heat Index: 26°   Visibility: 10mi
Dew Point: 21°   Wind: 0mph
Humidity: 84%   Direction: NA
Pressure: 30.24"   Gusts: NA
Location:  44.97°N, 84.97°W
Report Text: KACB 181515Z AUTO 00000KT 10SM OVC011 M04/M06 A3024 RMK AO2 T10361060
Loading
Personal Weather Stations






























Interactive Weather Map New forecast layout! Learn more

10-Day Weather Forecast

Advertisements
Track Severe Weather on mobile